createdAt,value
2018-12-14T00:01:47.241Z,-1.10
2018-12-14T00:04:17.424Z,-1.10
2018-12-14T00:06:46.420Z,-1.10
2018-12-14T00:09:19.051Z,-1.10
2018-12-14T00:11:48.135Z,-1.10
2018-12-14T00:14:17.493Z,-1.20
2018-12-14T00:16:46.583Z,-1.20
2018-12-14T00:24:16.075Z,-1.20
2018-12-14T00:26:45.679Z,-1.20
2018-12-14T00:34:13.351Z,-1.10
2018-12-14T00:36:43.457Z,-1.20
2018-12-14T00:39:11.944Z,-1.20
2018-12-14T00:41:40.539Z,-1.20
2018-12-14T00:44:09.025Z,-1.20
2018-12-14T00:46:41.800Z,-1.20
2018-12-14T00:49:10.896Z,-1.30
2018-12-14T00:51:40.261Z,-1.40
2018-12-14T00:54:10.112Z,-1.50
2018-12-14T00:56:40.004Z,-1.50
2018-12-14T00:59:08.811Z,-1.50
2018-12-14T01:01:37.552Z,-1.50
2018-12-14T01:04:06.107Z,-1.50
2018-12-14T01:06:34.593Z,-1.50
2018-12-14T01:09:05.141Z,-1.60
2018-12-14T01:11:33.736Z,-1.50
2018-12-14T01:14:02.516Z,-1.50
2018-12-14T01:16:32.047Z,-1.40
2018-12-14T01:19:00.547Z,-1.40
2018-12-14T01:21:30.163Z,-1.30
2018-12-14T01:23:59.624Z,-1.40
2018-12-14T01:26:28.912Z,-1.30
2018-12-14T01:28:57.487Z,-1.40
2018-12-14T01:31:26.207Z,-1.40
2018-12-14T01:33:54.936Z,-1.40
2018-12-14T01:36:24.122Z,-1.40
2018-12-14T01:38:53.071Z,-1.40
2018-12-14T01:41:21.556Z,-1.40
2018-12-14T01:43:50.040Z,-1.30
2018-12-14T01:46:18.552Z,-1.30
2018-12-14T01:48:47.204Z,-1.30
2018-12-14T01:51:18.175Z,-1.30
2018-12-14T01:53:46.833Z,-1.30
2018-12-14T02:01:16.873Z,-1.40
2018-12-14T02:03:45.504Z,-1.60
2018-12-14T02:06:15.944Z,-1.60
2018-12-14T02:08:44.559Z,-1.60
2018-12-14T02:11:13.059Z,-1.50
2018-12-14T02:13:42.082Z,-1.50
2018-12-14T02:16:10.777Z,-1.40
2018-12-14T02:18:39.256Z,-1.40
2018-12-14T02:21:08.140Z,-1.30
2018-12-14T02:23:37.859Z,-1.20
2018-12-14T02:26:06.341Z,-1.20
2018-12-14T02:28:35.665Z,-1.20
2018-12-14T02:31:04.358Z,-1.30
2018-12-14T02:33:32.844Z,-1.40
2018-12-14T02:36:01.458Z,-1.40
2018-12-14T02:38:30.208Z,-1.40
2018-12-14T02:40:58.849Z,-1.40
2018-12-14T02:43:27.556Z,-1.40
2018-12-14T02:45:56.575Z,-1.40
2018-12-14T02:48:25.234Z,-1.40
2018-12-14T02:50:54.771Z,-1.30
2018-12-14T02:53:23.272Z,-1.30
2018-12-14T02:55:51.784Z,-1.30
2018-12-14T02:58:21.584Z,-1.30
2018-12-14T03:00:50.259Z,-1.30
2018-12-14T03:03:18.721Z,-1.40
2018-12-14T03:05:47.239Z,-1.40
2018-12-14T03:08:18.659Z,-1.50
2018-12-14T03:10:47.272Z,-1.50
2018-12-14T03:18:15.507Z,-1.50
2018-12-14T03:20:44.059Z,-1.60
2018-12-14T03:23:12.571Z,-1.60
2018-12-14T03:25:41.476Z,-1.50
2018-12-14T03:28:09.977Z,-1.40
2018-12-14T03:30:38.691Z,-1.40
2018-12-14T03:33:07.441Z,-1.40
2018-12-14T03:35:36.431Z,-1.40
2018-12-14T03:38:04.926Z,-1.40
2018-12-14T03:40:34.040Z,-1.50
2018-12-14T03:43:02.577Z,-1.40
2018-12-14T03:45:31.176Z,-1.40
2018-12-14T03:48:06.116Z,-1.40
2018-12-14T03:50:34.607Z,-1.50
2018-12-14T03:53:03.151Z,-1.40
2018-12-14T03:55:31.724Z,-1.40
2018-12-14T03:58:00.645Z,-1.30
2018-12-14T04:00:29.604Z,-1.30
2018-12-14T04:02:58.696Z,-1.30
2018-12-14T04:05:27.704Z,-1.30
2018-12-14T04:07:56.237Z,-1.30
2018-12-14T04:10:25.123Z,-1.20
2018-12-14T04:12:54.033Z,-1.20
2018-12-14T04:15:24.251Z,-1.30
2018-12-14T04:17:52.774Z,-1.30
2018-12-14T04:20:21.277Z,-1.20
2018-12-14T04:22:49.924Z,-1.20
2018-12-14T04:25:19.288Z,-1.20
2018-12-14T04:27:48.056Z,-1.20
2018-12-14T04:30:17.573Z,-1.20
2018-12-14T04:32:47.310Z,-1.20
2018-12-14T04:35:17.916Z,-1.30
2018-12-14T04:37:47.858Z,-1.30
2018-12-14T04:40:18.625Z,-1.30
2018-12-14T04:42:48.941Z,-1.40
2018-12-14T04:45:17.834Z,-1.40
2018-12-14T04:47:46.378Z,-1.40
2018-12-14T04:55:16.720Z,-1.60
2018-12-14T04:57:45.542Z,-1.80
2018-12-14T05:05:14.454Z,-1.80
2018-12-14T05:07:44.628Z,-1.70
2018-12-14T05:10:13.290Z,-1.70
2018-12-14T05:12:42.323Z,-1.60
2018-12-14T05:15:10.996Z,-1.60
2018-12-14T05:17:39.662Z,-1.60
2018-12-14T05:20:08.423Z,-1.60
2018-12-14T05:22:36.998Z,-1.60
2018-12-14T05:30:06.844Z,-1.40
2018-12-14T05:32:35.673Z,-1.50
2018-12-14T05:35:05.587Z,-1.60
2018-12-14T05:37:34.510Z,-1.60
2018-12-14T05:40:03.858Z,-1.60
2018-12-14T05:42:34.559Z,-1.60
2018-12-14T05:45:03.076Z,-1.50
2018-12-14T05:47:31.660Z,-1.50
2018-12-14T05:50:01.523Z,-1.50
2018-12-14T05:52:30.297Z,-1.50
2018-12-14T05:54:58.803Z,-1.60
2018-12-14T05:57:27.420Z,-1.50
2018-12-14T05:59:56.579Z,-1.60
2018-12-14T06:02:25.815Z,-1.60
2018-12-14T06:04:54.320Z,-1.50
2018-12-14T06:07:23.952Z,-1.50
2018-12-14T06:09:53.067Z,-1.40
2018-12-14T06:12:26.269Z,-1.40
2018-12-14T06:14:54.827Z,-1.40
2018-12-14T06:17:23.796Z,-1.50
2018-12-14T06:19:54.151Z,-1.60
2018-12-14T06:22:23.239Z,-1.60
2018-12-14T06:24:51.939Z,-1.50
2018-12-14T06:27:20.468Z,-1.50
2018-12-14T06:29:49.191Z,-1.50
2018-12-14T06:32:19.932Z,-1.50
2018-12-14T06:34:50.385Z,-1.50
2018-12-14T06:37:20.016Z,-1.50
2018-12-14T06:39:48.522Z,-1.50
2018-12-14T06:42:18.462Z,-1.60
2018-12-14T06:44:46.975Z,-1.70
2018-12-14T06:50:43.316Z,-1.60
2018-12-14T06:53:12.132Z,-1.50
2018-12-14T06:55:41.827Z,-1.40
2018-12-14T06:58:11.194Z,-1.40
2018-12-14T07:00:40.320Z,-1.40
2018-12-14T07:03:08.812Z,-1.40
2018-12-14T07:05:38.160Z,-1.40
2018-12-14T07:08:06.665Z,-1.50
2018-12-14T07:10:35.152Z,-1.40
2018-12-14T07:13:05.422Z,-1.40
2018-12-14T07:15:34.074Z,-1.40
2018-12-14T07:18:02.598Z,-1.40
2018-12-14T07:20:33.129Z,-1.40
2018-12-14T07:23:01.741Z,-1.40
2018-12-14T07:25:31.031Z,-1.40
2018-12-14T07:27:59.639Z,-1.40
2018-12-14T07:30:28.641Z,-1.40
2018-12-14T07:32:57.308Z,-1.40
2018-12-14T07:35:26.225Z,-1.50
2018-12-14T07:37:55.897Z,-1.50
2018-12-14T07:40:24.577Z,-1.50
2018-12-14T07:42:53.421Z,-1.60
2018-12-14T07:45:21.892Z,-1.50
2018-12-14T07:47:51.880Z,-1.50
2018-12-14T07:50:22.224Z,-1.50
2018-12-14T07:52:51.319Z,-1.40
2018-12-14T07:55:20.807Z,-1.40
2018-12-14T07:57:50.659Z,-1.30
2018-12-14T08:00:19.215Z,-1.30
2018-12-14T08:02:49.844Z,-1.40
2018-12-14T08:05:19.212Z,-1.50
2018-12-14T08:07:48.715Z,-1.50
2018-12-14T08:10:18.135Z,-1.50
2018-12-14T08:12:47.583Z,-1.50
2018-12-14T08:15:18.391Z,-1.50
2018-12-14T08:17:47.007Z,-1.50
2018-12-14T08:25:17.684Z,-1.50
2018-12-14T08:27:47.029Z,-1.60
2018-12-14T08:35:19.110Z,-1.60
2018-12-14T08:37:48.556Z,-1.60
2018-12-14T08:40:19.747Z,-1.70
2018-12-14T08:42:48.264Z,-1.60
2018-12-14T08:45:18.389Z,-1.50
2018-12-14T08:47:47.027Z,-1.40
2018-12-14T08:55:15.220Z,-1.20
2018-12-14T08:57:43.890Z,-1.30
2018-12-14T09:00:13.553Z,-1.40
2018-12-14T09:02:42.691Z,-1.30
2018-12-14T09:05:12.036Z,-1.30
2018-12-14T09:07:40.680Z,-1.30
2018-12-14T09:10:09.653Z,-1.30
2018-12-14T09:12:38.658Z,-1.30
2018-12-14T09:15:07.432Z,-1.30
2018-12-14T09:17:36.142Z,-1.20
2018-12-14T09:20:05.713Z,-1.10
2018-12-14T09:22:36.514Z,-1.10
2018-12-14T09:25:05.221Z,-1.10
2018-12-14T09:27:34.404Z,-1.20
2018-12-14T09:30:03.263Z,-1.20
2018-12-14T09:32:32.897Z,-1.10
2018-12-14T09:35:02.153Z,-1.00
2018-12-14T09:37:33.317Z,-1.00
2018-12-14T09:40:02.059Z,-1.00
2018-12-14T09:42:30.948Z,-1.00
2018-12-14T09:44:59.461Z,-1.00
2018-12-14T09:47:28.895Z,-1.00
2018-12-14T09:49:58.149Z,-1.20
2018-12-14T09:52:26.870Z,-1.10
2018-12-14T09:54:56.216Z,-1.20
2018-12-14T09:57:24.816Z,-1.10
2018-12-14T09:59:54.098Z,-1.10
2018-12-14T10:02:24.480Z,-1.10
2018-12-14T10:04:52.970Z,-1.10
2018-12-14T10:07:22.348Z,-1.00
2018-12-14T10:09:52.558Z,-0.90
2018-12-14T10:12:21.090Z,-0.90
2018-12-14T10:14:50.940Z,-0.90
2018-12-14T10:17:19.413Z,-0.90
2018-12-14T10:19:48.804Z,-1.00
2018-12-14T10:22:17.753Z,-1.10
2018-12-14T10:24:46.282Z,-1.00
2018-12-14T10:32:16.996Z,-0.90
2018-12-14T10:34:45.547Z,-1.10
2018-12-14T10:42:15.965Z,-1.10
2018-12-14T10:44:45.519Z,-1.20
2018-12-14T10:52:15.143Z,-1.10
2018-12-14T10:54:44.039Z,-1.00
2018-12-14T10:57:16.153Z,-1.00
2018-12-14T10:59:43.666Z,-1.00
2018-12-14T11:02:12.277Z,-1.00
2018-12-14T11:04:41.026Z,-1.00
2018-12-14T11:07:10.018Z,-1.00
2018-12-14T11:09:38.488Z,-1.10
2018-12-14T11:12:07.279Z,-1.10
2018-12-14T11:14:35.944Z,-1.10
2018-12-14T11:17:04.485Z,-1.10
2018-12-14T11:19:32.966Z,-1.20
2018-12-14T11:22:03.063Z,-1.20
2018-12-14T11:24:31.531Z,-1.20
2018-12-14T11:27:00.785Z,-1.10
2018-12-14T11:29:30.297Z,-1.10
2018-12-14T11:31:59.028Z,-1.10
2018-12-14T11:34:29.908Z,-1.10
2018-12-14T11:36:58.048Z,-1.10
2018-12-14T11:39:29.015Z,-1.10
2018-12-14T11:41:57.496Z,-1.10
2018-12-14T11:44:26.881Z,-1.10
2018-12-14T11:46:57.019Z,-1.10
2018-12-14T11:49:25.512Z,-1.10
2018-12-14T11:51:54.083Z,-1.10
2018-12-14T11:54:23.085Z,-1.00
2018-12-14T11:56:51.576Z,-0.90
2018-12-14T11:59:20.227Z,-1.00
2018-12-14T12:01:48.726Z,-1.20
2018-12-14T12:04:18.856Z,-1.20
2018-12-14T12:06:48.690Z,-1.20
2018-12-14T12:09:18.404Z,-1.10
2018-12-14T12:11:46.897Z,-1.20
2018-12-14T12:14:17.902Z,-1.20
2018-12-14T12:16:46.616Z,-1.10
2018-12-14T12:22:53.058Z,-0.90
2018-12-14T12:25:21.629Z,-0.90
2018-12-14T12:27:50.104Z,-0.90
2018-12-14T12:30:18.632Z,-1.00
2018-12-14T12:32:48.215Z,-0.90
2018-12-14T12:35:17.714Z,-0.90
2018-12-14T12:37:46.290Z,-0.80
2018-12-14T12:45:17.773Z,-0.80
2018-12-14T12:47:47.325Z,-0.90
2018-12-14T12:55:16.729Z,-0.80
2018-12-14T12:57:45.360Z,-0.90
2018-12-14T13:05:15.461Z,-1.00
2018-12-14T13:07:44.452Z,-1.10
2018-12-14T13:10:12.952Z,-1.00
2018-12-14T13:12:41.464Z,-1.10
2018-12-14T13:15:10.722Z,-1.10
2018-12-14T13:17:39.482Z,-1.10
2018-12-14T13:20:08.138Z,-1.00
2018-12-14T13:22:38.186Z,-1.00
2018-12-14T13:25:06.682Z,-0.90
2018-12-14T13:27:36.202Z,-0.90
2018-12-14T13:30:06.037Z,-0.90
2018-12-14T13:32:35.501Z,-0.90
2018-12-14T13:35:04.307Z,-0.80
2018-12-14T13:37:33.241Z,-0.90
2018-12-14T13:40:01.846Z,-0.90
2018-12-14T13:42:30.398Z,-0.80
2018-12-14T13:44:59.329Z,-0.90
2018-12-14T13:47:28.800Z,-1.00
2018-12-14T13:49:58.658Z,-1.00
2018-12-14T13:52:27.278Z,-1.00
2018-12-14T13:54:55.805Z,-0.90
2018-12-14T13:57:24.393Z,-0.90
2018-12-14T13:59:53.016Z,-0.90
2018-12-14T14:02:21.897Z,-0.90
2018-12-14T14:04:50.387Z,-1.00
2018-12-14T14:07:18.889Z,-1.00
2018-12-14T14:09:48.094Z,-0.90
2018-12-14T14:12:18.120Z,-0.90
2018-12-14T14:14:52.888Z,-0.90
2018-12-14T14:17:17.942Z,-1.00
2018-12-14T14:19:47.080Z,-1.00
2018-12-14T14:22:17.728Z,-1.10
2018-12-14T14:24:46.647Z,-1.10
2018-12-14T14:32:17.756Z,-1.20
2018-12-14T14:34:46.237Z,-1.30
2018-12-14T14:37:17.356Z,-1.30
2018-12-14T14:39:46.273Z,-1.40
2018-12-14T14:42:17.663Z,-1.40
2018-12-14T14:44:46.194Z,-1.40
2018-12-14T14:52:16.477Z,-1.40
2018-12-14T14:54:44.960Z,-1.50
2018-12-14T14:57:13.439Z,-1.50
2018-12-14T14:59:41.956Z,-1.50
2018-12-14T15:02:10.494Z,-1.50
2018-12-14T15:04:39.550Z,-1.50
2018-12-14T15:07:08.083Z,-1.50
2018-12-14T15:09:37.492Z,-1.50
2018-12-14T15:12:06.089Z,-1.50
2018-12-14T15:14:35.172Z,-1.40
2018-12-14T15:17:03.895Z,-1.40
2018-12-14T15:19:32.407Z,-1.40
2018-12-14T15:22:04.562Z,-1.40
2018-12-14T15:24:32.131Z,-1.40
2018-12-14T15:27:01.212Z,-1.50
2018-12-14T15:29:29.711Z,-1.50
2018-12-14T15:31:59.604Z,-1.50
2018-12-14T15:34:28.093Z,-1.50
2018-12-14T15:36:57.262Z,-1.50
2018-12-14T15:39:25.736Z,-1.60
2018-12-14T15:41:54.240Z,-1.50
2018-12-14T15:44:25.540Z,-1.50
2018-12-14T15:46:54.174Z,-1.50
2018-12-14T15:49:22.828Z,-1.50
2018-12-14T15:51:51.421Z,-1.50
2018-12-14T15:54:22.128Z,-1.40
2018-12-14T15:56:52.606Z,-1.50
2018-12-14T15:59:21.726Z,-1.40
2018-12-14T16:01:50.312Z,-1.40
2018-12-14T16:04:18.996Z,-1.40
2018-12-14T16:06:48.257Z,-1.40
2018-12-14T16:09:19.617Z,-1.30
2018-12-14T16:11:48.272Z,-1.30
2018-12-14T16:14:17.638Z,-1.30
2018-12-14T16:16:46.209Z,-1.30
2018-12-14T16:29:07.823Z,-1.40
2018-12-14T16:31:36.508Z,-1.40
2018-12-14T16:34:05.145Z,-1.40
2018-12-14T16:36:34.142Z,-1.40
2018-12-14T16:39:02.802Z,-1.30
2018-12-14T16:41:32.317Z,-1.30
2018-12-14T16:44:00.830Z,-1.20
2018-12-14T16:46:29.341Z,-1.30
2018-12-14T16:48:58.361Z,-1.30
2018-12-14T16:51:27.208Z,-1.30
2018-12-14T16:54:03.179Z,-1.20
2018-12-14T16:56:32.575Z,-1.20
2018-12-14T16:59:01.223Z,-1.20
2018-12-14T17:01:30.220Z,-1.20
2018-12-14T17:03:59.224Z,-1.30
2018-12-14T17:06:28.335Z,-1.30
2018-12-14T17:08:56.821Z,-1.20
2018-12-14T17:11:25.844Z,-1.10
2018-12-14T17:13:55.166Z,-1.10
2018-12-14T17:16:23.760Z,-1.10
2018-12-14T17:18:52.276Z,-1.00
2018-12-14T17:21:20.920Z,-1.10
2018-12-14T17:23:49.635Z,-1.20
2018-12-14T17:26:18.717Z,-1.20
2018-12-14T17:28:47.212Z,-1.10
2018-12-14T17:36:18.280Z,-1.20
2018-12-14T17:38:47.500Z,-1.10
2018-12-14T17:41:17.533Z,-1.10
2018-12-14T17:43:47.190Z,-1.10
2018-12-14T17:46:18.231Z,-1.00
2018-12-14T17:48:46.740Z,-1.00
2018-12-14T17:51:18.141Z,-1.10
2018-12-14T17:53:46.692Z,-1.00
2018-12-14T18:01:17.225Z,-0.90
2018-12-14T18:03:45.916Z,-1.10
2018-12-14T18:13:03.306Z,-1.00
2018-12-14T18:15:31.830Z,-1.20
2018-12-14T18:18:00.324Z,-1.20
2018-12-14T18:20:29.789Z,-1.20
2018-12-14T18:22:59.100Z,-1.20
2018-12-14T18:25:27.717Z,-1.10
2018-12-14T18:27:56.678Z,-1.00
2018-12-14T18:30:25.231Z,-1.00
2018-12-14T18:32:53.764Z,-1.00
2018-12-14T18:35:22.341Z,-1.00
2018-12-14T18:37:53.332Z,-1.00
2018-12-14T18:40:22.545Z,-1.00
2018-12-14T18:42:51.325Z,-1.00
2018-12-14T18:45:20.368Z,-1.00
2018-12-14T18:47:49.482Z,-1.00
2018-12-14T18:50:18.918Z,-1.10
2018-12-14T18:52:47.432Z,-1.20
2018-12-14T18:55:17.685Z,-1.10
2018-12-14T18:57:46.739Z,-1.10
2018-12-14T19:00:17.573Z,-1.00
2018-12-14T19:02:46.849Z,-1.00
2018-12-14T19:10:15.759Z,-0.90
2018-12-14T19:12:44.651Z,-1.00
2018-12-14T19:15:13.378Z,-1.00
2018-12-14T19:17:42.169Z,-1.00
2018-12-14T19:20:10.697Z,-1.00
2018-12-14T19:22:39.902Z,-0.90
2018-12-14T19:25:08.609Z,-0.90
2018-12-14T19:27:37.368Z,-0.90
2018-12-14T19:35:07.494Z,-0.90
2018-12-14T19:37:36.212Z,-0.90
2018-12-14T19:40:06.171Z,-1.00
2018-12-14T19:42:34.820Z,-0.90
2018-12-14T19:45:03.983Z,-0.80
2018-12-14T19:47:32.890Z,-0.90
2018-12-14T19:50:01.720Z,-0.90
2018-12-14T19:52:32.121Z,-0.80
2018-12-14T19:55:01.863Z,-0.80
2018-12-14T19:57:31.042Z,-0.80
2018-12-14T19:59:59.597Z,-0.70
2018-12-14T20:02:28.673Z,-0.70
2018-12-14T20:04:58.391Z,-0.70
2018-12-14T20:07:27.804Z,-0.60
2018-12-14T20:09:56.699Z,-0.60
2018-12-14T20:12:25.508Z,-0.60
2018-12-14T20:14:54.001Z,-0.60
2018-12-14T20:17:22.672Z,-0.60
2018-12-14T20:19:52.075Z,-0.60
2018-12-14T20:22:21.009Z,-0.60
2018-12-14T20:24:49.776Z,-0.70
2018-12-14T20:27:19.006Z,-0.60
2018-12-14T20:29:47.589Z,-0.60
2018-12-14T20:32:20.132Z,-0.60
2018-12-14T20:34:48.687Z,-0.60
2018-12-14T20:37:17.469Z,-0.70
2018-12-14T20:39:45.945Z,-0.60
2018-12-14T20:45:39.203Z,-0.50
2018-12-14T20:48:08.077Z,-0.60
2018-12-14T20:50:37.237Z,-0.60
2018-12-14T20:53:06.491Z,-0.60
2018-12-14T20:55:35.218Z,-0.60
2018-12-14T20:58:03.976Z,-0.50
2018-12-14T21:00:32.625Z,-0.60
2018-12-14T21:03:02.368Z,-0.60
2018-12-14T21:05:31.796Z,-0.60
2018-12-14T21:08:00.544Z,-0.50
2018-12-14T21:10:29.445Z,-0.50
2018-12-14T21:12:59.194Z,-0.50
2018-12-14T21:15:30.826Z,-0.50
2018-12-14T21:17:59.484Z,-0.50
2018-12-14T21:20:28.505Z,-0.50
2018-12-14T21:22:57.252Z,-0.50
2018-12-14T21:25:26.126Z,-0.50
2018-12-14T21:27:55.997Z,-0.40
2018-12-14T21:30:24.751Z,-0.50
2018-12-14T21:32:53.264Z,-0.50
2018-12-14T21:35:22.646Z,-0.50
2018-12-14T21:37:51.653Z,-0.50
2018-12-14T21:40:20.900Z,-0.40
2018-12-14T21:42:51.112Z,-0.40
2018-12-14T21:45:19.806Z,-0.30
2018-12-14T21:47:48.322Z,-0.30
2018-12-14T21:50:18.530Z,-0.40
2018-12-14T21:52:47.910Z,-0.40
2018-12-14T21:55:17.810Z,-0.40
2018-12-14T21:57:46.752Z,-0.40
2018-12-14T22:10:11.031Z,-0.50
2018-12-14T22:12:40.129Z,-0.60
2018-12-14T22:15:09.413Z,-0.50
2018-12-14T22:17:38.353Z,-0.60
2018-12-14T22:20:07.136Z,-0.60
2018-12-14T22:22:36.156Z,-0.70
2018-12-14T22:25:05.531Z,-0.70
2018-12-14T22:29:54.894Z,-0.70
2018-12-14T22:32:23.880Z,-0.60
2018-12-14T22:34:52.770Z,-0.60
2018-12-14T22:37:21.376Z,-0.60
2018-12-14T22:39:50.216Z,-0.60
2018-12-14T22:42:20.005Z,-0.70
2018-12-14T22:44:48.532Z,-0.60
2018-12-14T22:47:17.452Z,-0.60
2018-12-14T22:49:45.965Z,-0.60
2018-12-14T22:57:15.735Z,-0.60
2018-12-14T22:59:44.643Z,-0.70
2018-12-14T23:02:13.805Z,-0.70
2018-12-14T23:04:42.512Z,-0.70
2018-12-14T23:07:11.323Z,-0.60
2018-12-14T23:09:40.694Z,-0.70
2018-12-14T23:12:10.441Z,-0.70
2018-12-14T23:14:39.043Z,-0.70
2018-12-14T23:17:08.657Z,-0.70
2018-12-14T23:19:38.362Z,-0.60
2018-12-14T23:22:06.914Z,-0.70
2018-12-14T23:24:36.256Z,-0.70
2018-12-14T23:27:04.972Z,-0.60
2018-12-14T23:29:33.644Z,-0.70
2018-12-14T23:32:02.353Z,-0.70
2018-12-14T23:34:31.156Z,-0.70
2018-12-14T23:36:59.805Z,-0.70
2018-12-14T23:39:28.289Z,-0.60
2018-12-14T23:41:57.338Z,-0.60
2018-12-14T23:44:26.846Z,-0.60
2018-12-14T23:46:58.781Z,-0.60
2018-12-14T23:49:26.924Z,-0.60
2018-12-14T23:51:55.705Z,-0.60
2018-12-14T23:54:24.893Z,-0.50
2018-12-14T23:56:55.143Z,-0.50
2018-12-14T23:59:23.648Z,-0.50
